Grootmis, South Africa
Current Conditions -  °F | °C
As of 2:00 AM on Friday 28 Nov 2014 (Local Time) from FAUP Reporting Station
Clear Clear  
Wind Chill: 63°   Ceiling: Unl
Heat Index: 63°   Visibility: 6mi
Dew Point: 43°   Wind: 7mph
Humidity: 48%   Direction: 180°S
Pressure: 30"   Gusts: NA
Location:  29.65°S, 17.08°E
Report Text: FAUP 280000Z 18006KT CAVOK 17/06 Q1016 NOSIG
Loading
Personal Weather Stations






























Interactive Weather Map New forecast layout! Learn more

10-Day Weather Forecast

Advertisements
Track Severe Weather on mobile